sensor_id;sensor_type;location;lat;lon;timestamp;P1;durP1;ratioP1;P2;durP2;ratioP2
1328;SDS011;658;48.820;9.354;2024-01-15T00:02:00;4.80;;;4.40;;
1328;SDS011;658;48.820;9.354;2024-01-15T00:06:00;4.73;;;4.33;;
1328;SDS011;658;48.820;9.354;2024-01-15T00:10:01;4.83;;;4.43;;
1328;SDS011;658;48.820;9.354;2024-01-15T00:14:02;5.10;;;4.70;;
1328;SDS011;658;48.820;9.354;2024-01-15T00:18:03;5.33;;;4.83;;
1328;SDS011;658;48.820;9.354;2024-01-15T00:22:06;5.07;;;4.20;;
1328;SDS011;658;48.820;9.354;2024-01-15T00:26:06;4.60;;;4.20;;
1328;SDS011;658;48.820;9.354;2024-01-15T00:30:07;4.87;;;4.40;;
1328;SDS011;658;48.820;9.354;2024-01-15T00:34:08;5.10;;;4.60;;
1328;SDS011;658;48.820;9.354;2024-01-15T00:38:08;4.73;;;4.33;;
1328;SDS011;658;48.820;9.354;2024-01-15T00:42:09;4.70;;;4.30;;
1328;SDS011;658;48.820;9.354;2024-01-15T00:46:09;5.10;;;3.93;;
1328;SDS011;658;48.820;9.354;2024-01-15T00:50:10;4.47;;;4.07;;
1328;SDS011;658;48.820;9.354;2024-01-15T00:54:11;5.27;;;4.87;;
1328;SDS011;658;48.820;9.354;2024-01-15T00:58:11;4.63;;;4.23;;
1328;SDS011;658;48.820;9.354;2024-01-15T01:02:12;5.20;;;4.70;;
1328;SDS011;658;48.820;9.354;2024-01-15T01:06:15;5.10;;;4.60;;
1328;SDS011;658;48.820;9.354;2024-01-15T01:10:15;4.50;;;4.20;;
1328;SDS011;658;48.820;9.354;2024-01-15T01:14:21;4.67;;;4.27;;
1328;SDS011;658;48.820;9.354;2024-01-15T01:18:21;4.97;;;4.57;;
1328;SDS011;658;48.820;9.354;2024-01-15T01:22:22;4.33;;;4.03;;
1328;SDS011;658;48.820;9.354;2024-01-15T01:26:22;5.27;;;4.77;;
1328;SDS011;658;48.820;9.354;2024-01-15T01:30:23;4.63;;;4.23;;
1328;SDS011;658;48.820;9.354;2024-01-15T01:34:24;4.10;;;3.80;;
1328;SDS011;658;48.820;9.354;2024-01-15T01:38:24;4.63;;;4.23;;
1328;SDS011;658;48.820;9.354;2024-01-15T01:42:25;4.93;;;4.50;;
1328;SDS011;658;48.820;9.354;2024-01-15T01:46:27;4.10;;;3.80;;
1328;SDS011;658;48.820;9.354;2024-01-15T01:50:29;4.73;;;4.33;;
1328;SDS011;658;48.820;9.354;2024-01-15T01:54:33;4.10;;;3.80;;
1328;SDS011;658;48.820;9.354;2024-01-15T01:58:35;5.13;;;4.70;;
1328;SDS011;658;48.820;9.354;2024-01-15T02:02:36;4.73;;;4.33;;
1328;SDS011;658;48.820;9.354;2024-01-15T02:06:37;5.50;;;4.73;;
1328;SDS011;658;48.820;9.354;2024-01-15T02:10:37;4.30;;;4.00;;
1328;SDS011;658;48.820;9.354;2024-01-15T02:14:39;4.73;;;4.33;;
1328;SDS011;658;48.820;9.354;2024-01-15T02:18:42;4.27;;;3.97;;
1328;SDS011;658;48.820;9.354;2024-01-15T02:22:43;5.00;;;4.60;;
1328;SDS011;658;48.820;9.354;2024-01-15T02:26:44;4.77;;;4.37;;
1328;SDS011;658;48.820;9.354;2024-01-15T02:30:47;4.90;;;4.50;;
1328;SDS011;658;48.820;9.354;2024-01-15T02:34:48;4.60;;;4.20;;
1328;SDS011;658;48.820;9.354;2024-01-15T02:38:48;4.60;;;4.20;;
1328;SDS011;658;48.820;9.354;2024-01-15T02:42:49;4.60;;;4.20;;
1328;SDS011;658;48.820;9.354;2024-01-15T02:46:49;4.43;;;4.03;;
1328;SDS011;658;48.820;9.354;2024-01-15T02:50:52;4.77;;;4.37;;
1328;SDS011;658;48.820;9.354;2024-01-15T02:54:53;4.57;;;4.20;;
1328;SDS011;658;48.820;9.354;2024-01-15T02:58:53;4.67;;;4.27;;
1328;SDS011;658;48.820;9.354;2024-01-15T03:02:54;4.53;;;4.13;;
1328;SDS011;658;48.820;9.354;2024-01-15T03:06:55;4.90;;;4.50;;
1328;SDS011;658;48.820;9.354;2024-01-15T03:10:55;4.90;;;4.50;;
1328;SDS011;658;48.820;9.354;2024-01-15T03:14:56;5.20;;;4.80;;
1328;SDS011;658;48.820;9.354;2024-01-15T03:18:58;4.60;;;4.20;;
1328;SDS011;658;48.820;9.354;2024-01-15T03:22:59;4.63;;;4.23;;
1328;SDS011;658;48.820;9.354;2024-01-15T03:27:00;4.07;;;3.77;;
1328;SDS011;658;48.820;9.354;2024-01-15T03:31:00;4.90;;;4.50;;
1328;SDS011;658;48.820;9.354;2024-01-15T03:35:01;4.60;;;4.20;;
1328;SDS011;658;48.820;9.354;2024-01-15T03:39:01;4.47;;;4.07;;
1328;SDS011;658;48.820;9.354;2024-01-15T03:43:02;4.60;;;4.20;;
1328;SDS011;658;48.820;9.354;2024-01-15T03:47:03;4.47;;;4.10;;
1328;SDS011;658;48.820;9.354;2024-01-15T03:51:04;4.60;;;4.20;;
1328;SDS011;658;48.820;9.354;2024-01-15T03:55:05;4.20;;;3.90;;
1328;SDS011;658;48.820;9.354;2024-01-15T03:59:05;4.40;;;4.10;;
1328;SDS011;658;48.820;9.354;2024-01-15T04:03:06;4.37;;;3.97;;
1328;SDS011;658;48.820;9.354;2024-01-15T04:07:07;4.03;;;3.73;;
1328;SDS011;658;48.820;9.354;2024-01-15T04:11:08;3.73;;;3.43;;
1328;SDS011;658;48.820;9.354;2024-01-15T04:15:09;3.90;;;3.60;;
1328;SDS011;658;48.820;9.354;2024-01-15T04:19:11;4.00;;;3.70;;
1328;SDS011;658;48.820;9.354;2024-01-15T04:23:12;4.27;;;3.90;;
1328;SDS011;658;48.820;9.354;2024-01-15T04:27:13;3.80;;;3.50;;
1328;SDS011;658;48.820;9.354;2024-01-15T04:31:20;3.97;;;3.60;;
1328;SDS011;658;48.820;9.354;2024-01-15T04:35:22;4.63;;;4.23;;
1328;SDS011;658;48.820;9.354;2024-01-15T04:39:23;4.17;;;3.87;;
1328;SDS011;658;48.820;9.354;2024-01-15T04:43:23;3.50;;;3.30;;
1328;SDS011;658;48.820;9.354;2024-01-15T04:47:24;4.13;;;3.73;;
1328;SDS011;658;48.820;9.354;2024-01-15T04:51:24;3.40;;;3.17;;
1328;SDS011;658;48.820;9.354;2024-01-15T04:55:25;3.67;;;3.13;;
1328;SDS011;658;48.820;9.354;2024-01-15T04:59:28;3.30;;;3.00;;
1328;SDS011;658;48.820;9.354;2024-01-15T05:03:28;3.50;;;3.20;;
1328;SDS011;658;48.820;9.354;2024-01-15T05:07:29;3.60;;;3.30;;
1328;SDS011;658;48.820;9.354;2024-01-15T05:11:30;3.80;;;3.50;;
1328;SDS011;658;48.820;9.354;2024-01-15T05:15:30;3.87;;;3.57;;
1328;SDS011;658;48.820;9.354;2024-01-15T05:19:31;3.47;;;3.17;;
1328;SDS011;658;48.820;9.354;2024-01-15T05:23:32;3.03;;;2.83;;
1328;SDS011;658;48.820;9.354;2024-01-15T05:27:32;3.43;;;3.17;;
1328;SDS011;658;48.820;9.354;2024-01-15T05:31:33;3.57;;;3.27;;
1328;SDS011;658;48.820;9.354;2024-01-15T05:35:34;3.10;;;2.90;;
1328;SDS011;658;48.820;9.354;2024-01-15T05:39:34;4.07;;;3.77;;
1328;SDS011;658;48.820;9.354;2024-01-15T05:43:35;3.30;;;3.00;;
1328;SDS011;658;48.820;9.354;2024-01-15T05:47:35;3.30;;;3.10;;
1328;SDS011;658;48.820;9.354;2024-01-15T05:51:36;3.30;;;3.00;;
1328;SDS011;658;48.820;9.354;2024-01-15T05:55:36;3.00;;;2.80;;
1328;SDS011;658;48.820;9.354;2024-01-15T05:59:38;2.80;;;2.60;;
1328;SDS011;658;48.820;9.354;2024-01-15T06:03:38;3.60;;;3.30;;
1328;SDS011;658;48.820;9.354;2024-01-15T06:07:39;3.00;;;2.80;;
1328;SDS011;658;48.820;9.354;2024-01-15T06:11:39;2.77;;;2.57;;
1328;SDS011;658;48.820;9.354;2024-01-15T06:15:40;2.80;;;2.60;;
1328;SDS011;658;48.820;9.354;2024-01-15T06:19:41;3.20;;;3.00;;
1328;SDS011;658;48.820;9.354;2024-01-15T06:23:41;2.63;;;2.43;;
1328;SDS011;658;48.820;9.354;2024-01-15T06:27:42;2.90;;;2.70;;
1328;SDS011;658;48.820;9.354;2024-01-15T06:31:42;2.70;;;2.50;;
1328;SDS011;658;48.820;9.354;2024-01-15T06:35:43;3.33;;;3.03;;
1328;SDS011;658;48.820;9.354;2024-01-15T06:39:46;2.93;;;2.73;;
1328;SDS011;658;48.820;9.354;2024-01-15T06:43:47;2.90;;;2.70;;
1328;SDS011;658;48.820;9.354;2024-01-15T06:47:48;2.90;;;2.70;;
1328;SDS011;658;48.820;9.354;2024-01-15T06:51:49;3.73;;;3.43;;
1328;SDS011;658;48.820;9.354;2024-01-15T06:55:49;2.70;;;2.50;;
1328;SDS011;658;48.820;9.354;2024-01-15T06:59:51;3.40;;;3.20;;
1328;SDS011;658;48.820;9.354;2024-01-15T07:03:51;2.63;;;2.43;;
1328;SDS011;658;48.820;9.354;2024-01-15T07:07:54;2.53;;;2.33;;
1328;SDS011;658;48.820;9.354;2024-01-15T07:11:55;4.23;;;3.40;;
1328;SDS011;658;48.820;9.354;2024-01-15T07:15:57;4.93;;;4.43;;
1328;SDS011;658;48.820;9.354;2024-01-15T07:19:58;4.43;;;3.20;;
1328;SDS011;658;48.820;9.354;2024-01-15T07:24:01;3.30;;;3.00;;
1328;SDS011;658;48.820;9.354;2024-01-15T07:28:04;2.90;;;2.70;;
1328;SDS011;658;48.820;9.354;2024-01-15T07:32:05;3.10;;;2.80;;
1328;SDS011;658;48.820;9.354;2024-01-15T07:36:07;3.17;;;2.97;;
1328;SDS011;658;48.820;9.354;2024-01-15T07:40:08;3.10;;;2.90;;
1328;SDS011;658;48.820;9.354;2024-01-15T07:44:10;2.90;;;2.70;;
1328;SDS011;658;48.820;9.354;2024-01-15T07:48:11;3.33;;;2.63;;
1328;SDS011;658;48.820;9.354;2024-01-15T07:52:12;2.40;;;2.20;;
1328;SDS011;658;48.820;9.354;2024-01-15T07:56:13;2.40;;;2.20;;
1328;SDS011;658;48.820;9.354;2024-01-15T08:00:14;2.43;;;2.23;;
1328;SDS011;658;48.820;9.354;2024-01-15T08:04:15;2.27;;;2.07;;
1328;SDS011;658;48.820;9.354;2024-01-15T08:08:15;2.90;;;2.63;;
1328;SDS011;658;48.820;9.354;2024-01-15T08:12:16;2.40;;;2.20;;
1328;SDS011;658;48.820;9.354;2024-01-15T08:16:17;3.07;;;2.63;;
1328;SDS011;658;48.820;9.354;2024-01-15T08:20:17;2.10;;;2.00;;
1328;SDS011;658;48.820;9.354;2024-01-15T08:24:20;3.00;;;2.80;;
1328;SDS011;658;48.820;9.354;2024-01-15T08:28:21;3.13;;;2.43;;
1328;SDS011;658;48.820;9.354;2024-01-15T08:32:21;2.20;;;2.10;;
1328;SDS011;658;48.820;9.354;2024-01-15T08:36:22;2.93;;;2.13;;
1328;SDS011;658;48.820;9.354;2024-01-15T08:40:24;2.13;;;2.03;;
1328;SDS011;658;48.820;9.354;2024-01-15T08:44:24;2.17;;;2.03;;
1328;SDS011;658;48.820;9.354;2024-01-15T08:48:25;2.70;;;2.33;;
1328;SDS011;658;48.820;9.354;2024-01-15T08:52:29;2.50;;;2.30;;
1328;SDS011;658;48.820;9.354;2024-01-15T08:56:32;2.50;;;2.30;;
1328;SDS011;658;48.820;9.354;2024-01-15T09:00:32;2.57;;;2.37;;
1328;SDS011;658;48.820;9.354;2024-01-15T09:04:33;2.20;;;2.00;;
1328;SDS011;658;48.820;9.354;2024-01-15T09:08:34;2.10;;;1.90;;
1328;SDS011;658;48.820;9.354;2024-01-15T09:12:34;1.90;;;1.80;;
1328;SDS011;658;48.820;9.354;2024-01-15T09:16:35;2.53;;;2.33;;
1328;SDS011;658;48.820;9.354;2024-01-15T09:20:35;2.03;;;1.83;;
1328;SDS011;658;48.820;9.354;2024-01-15T09:24:36;2.07;;;1.97;;
1328;SDS011;658;48.820;9.354;2024-01-15T09:28:37;1.87;;;1.77;;
1328;SDS011;658;48.820;9.354;2024-01-15T09:32:37;2.20;;;2.00;;
1328;SDS011;658;48.820;9.354;2024-01-15T09:36:41;2.87;;;1.80;;
1328;SDS011;658;48.820;9.354;2024-01-15T09:40:42;2.10;;;2.00;;
1328;SDS011;658;48.820;9.354;2024-01-15T09:44:45;2.57;;;2.37;;
1328;SDS011;658;48.820;9.354;2024-01-15T09:48:46;1.77;;;1.67;;
1328;SDS011;658;48.820;9.354;2024-01-15T09:52:47;1.97;;;1.87;;
1328;SDS011;658;48.820;9.354;2024-01-15T09:56:49;1.60;;;1.50;;
1328;SDS011;658;48.820;9.354;2024-01-15T10:00:52;2.13;;;2.03;;
1328;SDS011;658;48.820;9.354;2024-01-15T10:04:56;1.67;;;1.57;;
1328;SDS011;658;48.820;9.354;2024-01-15T10:08:57;1.93;;;1.73;;
1328;SDS011;658;48.820;9.354;2024-01-15T10:13:00;2.03;;;1.93;;
1328;SDS011;658;48.820;9.354;2024-01-15T10:17:08;2.33;;;1.87;;
1328;SDS011;658;48.820;9.354;2024-01-15T10:21:17;2.47;;;1.80;;
1328;SDS011;658;48.820;9.354;2024-01-15T10:25:18;2.03;;;1.83;;
1328;SDS011;658;48.820;9.354;2024-01-15T10:29:24;3.10;;;1.80;;
1328;SDS011;658;48.820;9.354;2024-01-15T10:33:25;3.07;;;2.30;;
1328;SDS011;658;48.820;9.354;2024-01-15T10:37:26;5.93;;;2.70;;
1328;SDS011;658;48.820;9.354;2024-01-15T10:41:27;2.10;;;1.90;;
1328;SDS011;658;48.820;9.354;2024-01-15T10:45:27;1.97;;;1.70;;
1328;SDS011;658;48.820;9.354;2024-01-15T10:49:28;1.60;;;1.50;;
1328;SDS011;658;48.820;9.354;2024-01-15T10:53:30;3.47;;;1.80;;
1328;SDS011;658;48.820;9.354;2024-01-15T10:57:32;2.83;;;2.03;;
1328;SDS011;658;48.820;9.354;2024-01-15T11:01:33;2.97;;;1.70;;
1328;SDS011;658;48.820;9.354;2024-01-15T11:05:37;3.57;;;1.80;;
1328;SDS011;658;48.820;9.354;2024-01-15T11:09:38;1.90;;;1.53;;
1328;SDS011;658;48.820;9.354;2024-01-15T11:13:41;2.00;;;1.80;;
1328;SDS011;658;48.820;9.354;2024-01-15T11:17:57;1.77;;;1.67;;
1328;SDS011;658;48.820;9.354;2024-01-15T11:22:00;2.03;;;1.70;;
1328;SDS011;658;48.820;9.354;2024-01-15T11:26:01;1.97;;;1.87;;
1328;SDS011;658;48.820;9.354;2024-01-15T11:30:04;2.60;;;2.40;;
1328;SDS011;658;48.820;9.354;2024-01-15T11:34:14;2.27;;;1.70;;
1328;SDS011;658;48.820;9.354;2024-01-15T11:38:26;7.77;;;4.77;;
1328;SDS011;658;48.820;9.354;2024-01-15T11:42:30;4.90;;;3.60;;
1328;SDS011;658;48.820;9.354;2024-01-15T11:46:31;9.27;;;3.80;;
1328;SDS011;658;48.820;9.354;2024-01-15T11:50:36;7.20;;;4.27;;
1328;SDS011;658;48.820;9.354;2024-01-15T11:54:41;7.47;;;5.10;;
1328;SDS011;658;48.820;9.354;2024-01-15T11:58:49;11.03;;;5.73;;
1328;SDS011;658;48.820;9.354;2024-01-15T12:02:50;11.40;;;5.40;;
1328;SDS011;658;48.820;9.354;2024-01-15T12:06:51;13.00;;;6.23;;
1328;SDS011;658;48.820;9.354;2024-01-15T12:10:52;9.70;;;6.13;;
1328;SDS011;658;48.820;9.354;2024-01-15T12:14:53;9.73;;;5.80;;
1328;SDS011;658;48.820;9.354;2024-01-15T12:18:53;9.73;;;6.43;;
1328;SDS011;658;48.820;9.354;2024-01-15T12:22:54;10.20;;;6.63;;
1328;SDS011;658;48.820;9.354;2024-01-15T12:26:55;10.47;;;6.83;;
1328;SDS011;658;48.820;9.354;2024-01-15T12:30:56;12.37;;;6.60;;
1328;SDS011;658;48.820;9.354;2024-01-15T12:35:00;9.40;;;5.27;;
1328;SDS011;658;48.820;9.354;2024-01-15T12:39:00;8.37;;;5.30;;
1328;SDS011;658;48.820;9.354;2024-01-15T12:43:01;10.60;;;5.33;;
1328;SDS011;658;48.820;9.354;2024-01-15T12:47:02;11.57;;;5.63;;
1328;SDS011;658;48.820;9.354;2024-01-15T12:51:05;8.87;;;5.37;;
1328;SDS011;658;48.820;9.354;2024-01-15T12:55:07;8.03;;;5.23;;
1328;SDS011;658;48.820;9.354;2024-01-15T12:59:08;9.40;;;5.00;;
1328;SDS011;658;48.820;9.354;2024-01-15T13:03:09;7.93;;;4.97;;
1328;SDS011;658;48.820;9.354;2024-01-15T13:07:09;9.30;;;4.60;;
1328;SDS011;658;48.820;9.354;2024-01-15T13:11:10;7.97;;;4.47;;
1328;SDS011;658;48.820;9.354;2024-01-15T13:15:14;6.30;;;4.27;;
1328;SDS011;658;48.820;9.354;2024-01-15T13:19:17;6.30;;;4.80;;
1328;SDS011;658;48.820;9.354;2024-01-15T13:23:18;7.20;;;4.20;;
1328;SDS011;658;48.820;9.354;2024-01-15T13:27:20;6.43;;;3.80;;
1328;SDS011;658;48.820;9.354;2024-01-15T13:31:21;6.63;;;3.60;;
1328;SDS011;658;48.820;9.354;2024-01-15T13:35:22;5.00;;;3.20;;
1328;SDS011;658;48.820;9.354;2024-01-15T13:39:25;6.37;;;3.40;;
1328;SDS011;658;48.820;9.354;2024-01-15T13:43:25;3.77;;;2.90;;
1328;SDS011;658;48.820;9.354;2024-01-15T13:47:27;4.30;;;2.83;;
1328;SDS011;658;48.820;9.354;2024-01-15T13:51:27;4.00;;;3.20;;
1328;SDS011;658;48.820;9.354;2024-01-15T13:55:28;4.40;;;3.17;;
1328;SDS011;658;48.820;9.354;2024-01-15T13:59:28;5.97;;;3.27;;
1328;SDS011;658;48.820;9.354;2024-01-15T14:03:32;3.60;;;3.10;;
1328;SDS011;658;48.820;9.354;2024-01-15T14:07:35;3.13;;;2.67;;
1328;SDS011;658;48.820;9.354;2024-01-15T14:11:39;5.53;;;3.10;;
1328;SDS011;658;48.820;9.354;2024-01-15T14:15:39;3.33;;;2.73;;
1328;SDS011;658;48.820;9.354;2024-01-15T14:19:40;4.70;;;2.30;;
1328;SDS011;658;48.820;9.354;2024-01-15T14:23:41;4.03;;;2.60;;
1328;SDS011;658;48.820;9.354;2024-01-15T14:27:42;2.60;;;2.17;;
1328;SDS011;658;48.820;9.354;2024-01-15T14:31:42;3.67;;;2.53;;
1328;SDS011;658;48.820;9.354;2024-01-15T14:35:43;3.80;;;2.70;;
1328;SDS011;658;48.820;9.354;2024-01-15T14:39:44;4.33;;;2.60;;
1328;SDS011;658;48.820;9.354;2024-01-15T14:43:44;4.40;;;2.30;;
1328;SDS011;658;48.820;9.354;2024-01-15T14:47:45;5.53;;;2.30;;
1328;SDS011;658;48.820;9.354;2024-01-15T14:51:47;2.90;;;2.70;;
1328;SDS011;658;48.820;9.354;2024-01-15T14:55:49;2.50;;;2.30;;
1328;SDS011;658;48.820;9.354;2024-01-15T14:59:50;3.13;;;2.43;;
1328;SDS011;658;48.820;9.354;2024-01-15T15:03:51;2.37;;;2.17;;
1328;SDS011;658;48.820;9.354;2024-01-15T15:07:52;2.63;;;2.20;;
1328;SDS011;658;48.820;9.354;2024-01-15T15:11:53;4.23;;;1.87;;
1328;SDS011;658;48.820;9.354;2024-01-15T15:15:53;2.67;;;2.10;;
1328;SDS011;658;48.820;9.354;2024-01-15T15:19:54;2.20;;;1.93;;
1328;SDS011;658;48.820;9.354;2024-01-15T15:23:55;3.00;;;2.00;;
1328;SDS011;658;48.820;9.354;2024-01-15T15:27:56;2.37;;;2.17;;
1328;SDS011;658;48.820;9.354;2024-01-15T15:31:56;2.47;;;1.80;;
1328;SDS011;658;48.820;9.354;2024-01-15T15:35:57;1.87;;;1.77;;
1328;SDS011;658;48.820;9.354;2024-01-15T15:39:59;2.17;;;1.97;;
1328;SDS011;658;48.820;9.354;2024-01-15T15:44:00;2.90;;;1.80;;
1328;SDS011;658;48.820;9.354;2024-01-15T15:48:03;2.30;;;2.10;;
1328;SDS011;658;48.820;9.354;2024-01-15T15:52:04;2.13;;;1.80;;
1328;SDS011;658;48.820;9.354;2024-01-15T15:56:05;2.50;;;1.67;;
1328;SDS011;658;48.820;9.354;2024-01-15T16:00:06;1.60;;;1.50;;
1328;SDS011;658;48.820;9.354;2024-01-15T16:04:07;2.10;;;1.90;;
1328;SDS011;658;48.820;9.354;2024-01-15T16:08:08;1.60;;;1.50;;
1328;SDS011;658;48.820;9.354;2024-01-15T16:12:09;1.97;;;1.70;;
1328;SDS011;658;48.820;9.354;2024-01-15T16:16:10;2.10;;;1.73;;
1328;SDS011;658;48.820;9.354;2024-01-15T16:20:10;1.60;;;1.50;;
1328;SDS011;658;48.820;9.354;2024-01-15T16:24:16;1.90;;;1.73;;
1328;SDS011;658;48.820;9.354;2024-01-15T16:28:17;1.80;;;1.70;;
1328;SDS011;658;48.820;9.354;2024-01-15T16:32:17;1.77;;;1.67;;
1328;SDS011;658;48.820;9.354;2024-01-15T16:36:18;1.63;;;1.53;;
1328;SDS011;658;48.820;9.354;2024-01-15T16:40:20;1.70;;;1.60;;
1328;SDS011;658;48.820;9.354;2024-01-15T16:44:22;1.60;;;1.50;;
1328;SDS011;658;48.820;9.354;2024-01-15T16:48:23;1.87;;;1.77;;
1328;SDS011;658;48.820;9.354;2024-01-15T16:52:24;2.03;;;1.83;;
1328;SDS011;658;48.820;9.354;2024-01-15T16:56:27;1.90;;;1.80;;
1328;SDS011;658;48.820;9.354;2024-01-15T17:00:28;1.50;;;1.40;;
1328;SDS011;658;48.820;9.354;2024-01-15T17:04:34;1.50;;;1.40;;
1328;SDS011;658;48.820;9.354;2024-01-15T17:08:34;1.83;;;1.67;;
1328;SDS011;658;48.820;9.354;2024-01-15T17:12:35;1.77;;;1.67;;
1328;SDS011;658;48.820;9.354;2024-01-15T17:16:36;1.50;;;1.40;;
1328;SDS011;658;48.820;9.354;2024-01-15T17:20:36;1.60;;;1.50;;
1328;SDS011;658;48.820;9.354;2024-01-15T17:24:40;1.70;;;1.60;;
1328;SDS011;658;48.820;9.354;2024-01-15T17:28:40;1.60;;;1.50;;
1328;SDS011;658;48.820;9.354;2024-01-15T17:32:41;1.40;;;1.30;;
1328;SDS011;658;48.820;9.354;2024-01-15T17:36:42;1.93;;;1.50;;
1328;SDS011;658;48.820;9.354;2024-01-15T17:40:45;1.60;;;1.50;;
1328;SDS011;658;48.820;9.354;2024-01-15T17:44:46;1.70;;;1.60;;
1328;SDS011;658;48.820;9.354;2024-01-15T17:48:51;1.70;;;1.60;;
1328;SDS011;658;48.820;9.354;2024-01-15T17:52:52;2.10;;;1.90;;
1328;SDS011;658;48.820;9.354;2024-01-15T17:56:53;1.30;;;1.20;;
1328;SDS011;658;48.820;9.354;2024-01-15T18:00:53;1.30;;;1.20;;
1328;SDS011;658;48.820;9.354;2024-01-15T18:04:54;1.40;;;1.30;;
1328;SDS011;658;48.820;9.354;2024-01-15T18:08:57;1.93;;;1.50;;
1328;SDS011;658;48.820;9.354;2024-01-15T18:12:57;1.30;;;1.20;;
1328;SDS011;658;48.820;9.354;2024-01-15T18:16:59;1.57;;;1.50;;
1328;SDS011;658;48.820;9.354;2024-01-15T18:21:00;2.60;;;1.70;;
1328;SDS011;658;48.820;9.354;2024-01-15T18:25:01;1.60;;;1.50;;
1328;SDS011;658;48.820;9.354;2024-01-15T18:29:04;1.30;;;1.20;;
1328;SDS011;658;48.820;9.354;2024-01-15T18:33:05;1.50;;;1.40;;
1328;SDS011;658;48.820;9.354;2024-01-15T18:37:07;1.60;;;1.50;;
1328;SDS011;658;48.820;9.354;2024-01-15T18:41:08;1.60;;;1.50;;
1328;SDS011;658;48.820;9.354;2024-01-15T18:45:08;1.30;;;1.20;;
1328;SDS011;658;48.820;9.354;2024-01-15T18:49:10;1.70;;;1.60;;
1328;SDS011;658;48.820;9.354;2024-01-15T18:53:11;1.53;;;1.43;;
1328;SDS011;658;48.820;9.354;2024-01-15T18:57:12;1.60;;;1.50;;
1328;SDS011;658;48.820;9.354;2024-01-15T19:01:14;1.67;;;1.47;;
1328;SDS011;658;48.820;9.354;2024-01-15T19:05:26;1.50;;;1.40;;
1328;SDS011;658;48.820;9.354;2024-01-15T19:09:27;1.40;;;1.30;;
1328;SDS011;658;48.820;9.354;2024-01-15T19:13:27;1.70;;;1.60;;
1328;SDS011;658;48.820;9.354;2024-01-15T19:17:30;1.20;;;1.10;;
1328;SDS011;658;48.820;9.354;2024-01-15T19:21:31;1.40;;;1.30;;
1328;SDS011;658;48.820;9.354;2024-01-15T19:25:31;1.70;;;1.60;;
1328;SDS011;658;48.820;9.354;2024-01-15T19:29:32;1.20;;;1.20;;
1328;SDS011;658;48.820;9.354;2024-01-15T19:33:33;1.50;;;1.40;;
1328;SDS011;658;48.820;9.354;2024-01-15T19:37:36;1.97;;;1.47;;
1328;SDS011;658;48.820;9.354;2024-01-15T19:41:36;1.10;;;1.10;;
1328;SDS011;658;48.820;9.354;2024-01-15T19:45:37;1.60;;;1.50;;
1328;SDS011;658;48.820;9.354;2024-01-15T19:49:38;1.30;;;1.20;;
1328;SDS011;658;48.820;9.354;2024-01-15T19:53:43;1.40;;;1.30;;
1328;SDS011;658;48.820;9.354;2024-01-15T19:57:44;1.53;;;1.43;;
1328;SDS011;658;48.820;9.354;2024-01-15T20:01:44;1.23;;;1.13;;
1328;SDS011;658;48.820;9.354;2024-01-15T20:05:45;1.57;;;1.30;;
1328;SDS011;658;48.820;9.354;2024-01-15T20:09:45;1.50;;;1.40;;
1328;SDS011;658;48.820;9.354;2024-01-15T20:13:46;1.60;;;1.50;;
1328;SDS011;658;48.820;9.354;2024-01-15T20:17:51;1.20;;;1.10;;
1328;SDS011;658;48.820;9.354;2024-01-15T20:21:53;1.60;;;1.50;;
1328;SDS011;658;48.820;9.354;2024-01-15T20:25:53;1.23;;;1.20;;
1328;SDS011;658;48.820;9.354;2024-01-15T20:29:54;1.23;;;1.13;;
1328;SDS011;658;48.820;9.354;2024-01-15T20:33:55;1.33;;;1.13;;
1328;SDS011;658;48.820;9.354;2024-01-15T20:37:55;2.47;;;1.40;;
1328;SDS011;658;48.820;9.354;2024-01-15T20:41:57;0.90;;;0.90;;
1328;SDS011;658;48.820;9.354;2024-01-15T20:45:58;1.37;;;1.27;;
1328;SDS011;658;48.820;9.354;2024-01-15T20:50:02;1.13;;;1.10;;
1328;SDS011;658;48.820;9.354;2024-01-15T20:54:02;1.07;;;1.00;;
1328;SDS011;658;48.820;9.354;2024-01-15T20:58:07;1.43;;;1.33;;
1328;SDS011;658;48.820;9.354;2024-01-15T21:02:08;0.90;;;0.90;;
1328;SDS011;658;48.820;9.354;2024-01-15T21:06:09;1.40;;;1.30;;
1328;SDS011;658;48.820;9.354;2024-01-15T21:10:09;1.30;;;1.20;;
1328;SDS011;658;48.820;9.354;2024-01-15T21:14:10;1.30;;;1.20;;
1328;SDS011;658;48.820;9.354;2024-01-15T21:18:18;1.27;;;1.20;;
1328;SDS011;658;48.820;9.354;2024-01-15T21:22:18;1.30;;;1.20;;
1328;SDS011;658;48.820;9.354;2024-01-15T21:26:19;1.80;;;1.63;;
1328;SDS011;658;48.820;9.354;2024-01-15T21:30:20;1.60;;;1.50;;
1328;SDS011;658;48.820;9.354;2024-01-15T21:34:21;2.40;;;2.20;;
1328;SDS011;658;48.820;9.354;2024-01-15T21:38:25;4.37;;;2.87;;
1328;SDS011;658;48.820;9.354;2024-01-15T21:42:25;3.50;;;3.20;;
1328;SDS011;658;48.820;9.354;2024-01-15T21:46:26;5.73;;;4.80;;
1328;SDS011;658;48.820;9.354;2024-01-15T21:50:26;5.90;;;3.83;;
1328;SDS011;658;48.820;9.354;2024-01-15T21:54:29;9.33;;;5.80;;
1328;SDS011;658;48.820;9.354;2024-01-15T21:58:31;12.67;;;7.00;;
1328;SDS011;658;48.820;9.354;2024-01-15T22:02:34;7.93;;;6.00;;
1328;SDS011;658;48.820;9.354;2024-01-15T22:06:39;15.10;;;8.47;;
1328;SDS011;658;48.820;9.354;2024-01-15T22:10:40;14.60;;;10.03;;
1328;SDS011;658;48.820;9.354;2024-01-15T22:14:43;12.70;;;8.20;;
1328;SDS011;658;48.820;9.354;2024-01-15T22:18:44;14.00;;;8.90;;
1328;SDS011;658;48.820;9.354;2024-01-15T22:22:45;16.87;;;9.77;;
1328;SDS011;658;48.820;9.354;2024-01-15T22:26:46;12.57;;;9.37;;
1328;SDS011;658;48.820;9.354;2024-01-15T22:30:49;19.10;;;10.37;;
1328;SDS011;658;48.820;9.354;2024-01-15T22:34:49;16.47;;;10.90;;
1328;SDS011;658;48.820;9.354;2024-01-15T22:38:50;19.00;;;11.33;;
1328;SDS011;658;48.820;9.354;2024-01-15T22:42:51;17.00;;;9.90;;
1328;SDS011;658;48.820;9.354;2024-01-15T22:46:51;16.20;;;10.27;;
1328;SDS011;658;48.820;9.354;2024-01-15T22:50:54;17.77;;;11.23;;
1328;SDS011;658;48.820;9.354;2024-01-15T22:54:57;13.77;;;9.60;;
1328;SDS011;658;48.820;9.354;2024-01-15T22:59:00;14.80;;;10.07;;
1328;SDS011;658;48.820;9.354;2024-01-15T23:03:01;14.93;;;10.17;;
1328;SDS011;658;48.820;9.354;2024-01-15T23:07:02;15.30;;;9.63;;
1328;SDS011;658;48.820;9.354;2024-01-15T23:11:04;14.10;;;9.53;;
1328;SDS011;658;48.820;9.354;2024-01-15T23:15:04;13.80;;;10.10;;
1328;SDS011;658;48.820;9.354;2024-01-15T23:19:05;12.97;;;8.17;;
1328;SDS011;658;48.820;9.354;2024-01-15T23:23:06;13.17;;;9.53;;
1328;SDS011;658;48.820;9.354;2024-01-15T23:27:06;13.90;;;8.70;;
1328;SDS011;658;48.820;9.354;2024-01-15T23:31:09;13.43;;;7.90;;
1328;SDS011;658;48.820;9.354;2024-01-15T23:35:10;12.60;;;7.80;;
1328;SDS011;658;48.820;9.354;2024-01-15T23:39:10;9.73;;;7.57;;
1328;SDS011;658;48.820;9.354;2024-01-15T23:43:11;11.50;;;8.17;;
1328;SDS011;658;48.820;9.354;2024-01-15T23:47:12;10.27;;;7.57;;
1328;SDS011;658;48.820;9.354;2024-01-15T23:51:12;10.57;;;7.50;;
1328;SDS011;658;48.820;9.354;2024-01-15T23:55:13;10.87;;;7.73;;
1328;SDS011;658;48.820;9.354;2024-01-15T23:59:16;10.00;;;7.20;;
